M I D A S
Marine Information and Data Acquisition System
Tripno 58 of the Zeeleeuw from 2001-07-30 06:34:18 to 2001-07-30 16:30:00
Back to CruiseResearch ActivitiesStationsMapUnderway DataData graphs

EquipmentUnitsComment
TimeDGPSUTC
LatitudeDGPSDM.mWGS84
LongitudeDGPSDM.mWGS84
TemperatureSBE03/SBE38deg celciusITS90
ConductivitySBE21S/mITS90
SalinitySBE21 Practical Salinity Units
ChlorophylAChelsea fluorimeterg/lCalibrated in Aceton
Missing or incorrect values are displayed as -999
Sea surface data collected by the RV Zeeleeuw from 2001-07-30 06:34:18 to 2001-07-30 16:30:00
Time Latitude Longitude Temperature Conductivity Salinity ChlorophylA
2001-07-30 06:35:24 51°13.675 2°55.925 -999 -999 -999  
2001-07-30 06:36:49 51°13.676 2°55.925 -999 -999 -999  
2001-07-30 06:37:49 51°13.676 2°55.924 -999 -999 -999  
2001-07-30 06:38:45 51°13.676 2°55.924 -999 -999 -999  
2001-07-30 06:39:45 51°13.676 2°55.924 -999 -999 -999  
2001-07-30 06:40:45 51°13.676 2°55.924 -999 -999 -999  
2001-07-30 06:41:45 51°13.676 2°55.924 -999 -999 -999  
2001-07-30 06:42:45 51°13.676 2°55.924 -999 -999 -999  
2001-07-30 06:43:45 51°13.676 2°55.924 -999 -999 -999  
2001-07-30 06:44:43 51°13.676 2°55.924 -999 -999 -999  
2001-07-30 06:45:45 51°13.676 2°55.924 -999 -999 -999  
2001-07-30 06:46:45 51°13.676 2°55.924 -999 -999 -999  
2001-07-30 06:47:45 51°13.676 2°55.924 -999 -999 -999  
2001-07-30 06:48:45 51°13.676 2°55.924 -999 -999 -999  
2001-07-30 06:49:45 51°13.676 2°55.924 -999 -999 -999  
2001-07-30 06:50:44 51°13.677 2°55.924 -999 -999 -999  
2001-07-30 06:51:43 51°13.677 2°55.924 -999 -999 -999  
2001-07-30 06:52:45 51°13.678 2°55.924 -999 -999 -999  
2001-07-30 06:53:45 51°13.678 2°55.924 -999 -999 -999  
2001-07-30 06:54:45 51°13.678 2°55.924 -999 -999 -999  
2001-07-30 06:55:45 51°13.678 2°55.924 -999 -999 -999  
2001-07-30 06:56:43 51°13.676 2°55.924 -999 -999 -999  
2001-07-30 06:57:45 51°13.675 2°55.924 -999 -999 -999  
2001-07-30 06:58:45 51°13.676 2°55.924 -999 -999 -999  
2001-07-30 06:59:53 51°13.676 2°55.924 -999 -999 -999  
2001-07-30 07:00:53 51°13.676 2°55.924 -999 -999 -999  
2001-07-30 07:01:53 51°13.676 2°55.924 -999 -999 -999  
2001-07-30 07:02:54 51°13.676 2°55.924 -999 -999 -999  
2001-07-30 07:03:53 51°13.676 2°55.924 -999 -999 -999  
2001-07-30 07:04:53 51°13.676 2°55.924 -999 -999 -999  
2001-07-30 07:05:53 51°13.676 2°55.923 -999 -999 -999  
2001-07-30 07:06:53 51°13.676 2°55.923 -999 -999 -999  
2001-07-30 07:07:53 51°13.676 2°55.923 -999 -999 -999  
2001-07-30 07:08:53 51°13.676 2°55.923 -999 -999 -999  
2001-07-30 07:09:53 51°13.676 2°55.923 -999 -999 -999  
2001-07-30 07:10:54 51°13.676 2°55.923 -999 -999 -999  
2001-07-30 07:11:53 51°13.676 2°55.923 -999 -999 -999  
2001-07-30 07:12:53 51°13.677 2°55.924 -999 -999 -999  
2001-07-30 07:13:53 51°13.677 2°55.924 -999 -999 -999  
2001-07-30 07:14:54 51°13.677 2°55.924 -999 -999 -999  
2001-07-30 07:15:54 51°13.676 2°55.924 -999 -999 -999  
2001-07-30 07:16:54 51°13.676 2°55.924 -999 -999 -999  
2001-07-30 07:17:53 51°13.676 2°55.924 -999 -999 -999  
2001-07-30 07:18:53 51°13.676 2°55.924 -999 -999 -999  
2001-07-30 07:19:53 51°13.676 2°55.923 -999 -999 -999  
2001-07-30 07:20:54 51°13.676 2°55.924 -999 -999 -999  
2001-07-30 07:21:53 51°13.676 2°55.924 -999 -999 -999  
2001-07-30 07:22:53 51°13.676 2°55.924 -999 -999 -999  
2001-07-30 07:23:53 51°13.675 2°55.926 -999 -999 -999  
2001-07-30 07:24:53 51°13.674 2°55.927 -999 -999 -999  
2001-07-30 07:25:53 51°13.672 2°55.924 -999 -999 -999  
2001-07-30 07:26:54 51°13.672 2°55.869 -999 -999 -999  
2001-07-30 07:27:53 51°13.672 2°55.783 -999 -999 -999  
2001-07-30 07:28:53 51°13.679 2°55.753 -999 -999 -999  
2001-07-30 07:29:53 51°13.764 2°55.72 -999 -999 -999  
2001-07-30 07:30:53 51°13.871 2°55.614 -999 -999 -999  
2001-07-30 07:31:53 51°14.003 2°55.526 -999 -999 -999  
2001-07-30 07:32:53 51°14.132 2°55.43 -999 -999 -999  
2001-07-30 07:33:53 51°14.253 2°55.297 -999 -999 -999  
2001-07-30 07:34:53 51°14.349 2°55.111 -999 -999 -999  
2001-07-30 07:35:53 51°14.49 2°54.976 -999 -999 -999  
2001-07-30 07:36:53 51°14.667 2°54.858 -999 -999 -999  
2001-07-30 07:37:53 51°14.841 2°54.722 -999 -999 -999  
2001-07-30 07:38:53 51°15.025 2°54.582 -999 -999 -999  
2001-07-30 07:39:53 51°15.216 2°54.424 -999 -999 -999  
2001-07-30 07:40:53 51°15.415 2°54.263 -999 -999 -999  
2001-07-30 07:41:53 51°15.613 2°54.095 -999 -999 -999  
2001-07-30 07:42:53 51°15.812 2°53.93 -999 -999 -999  
2001-07-30 07:43:53 51°16.017 2°53.775 -999 -999 -999  
2001-07-30 07:44:53 51°16.216 2°53.613 -999 -999 -999  
2001-07-30 07:45:53 51°16.408 2°53.439 -999 -999 -999  
2001-07-30 07:46:53 51°16.601 2°53.272 -999 -999 -999  
2001-07-30 07:47:53 51°16.789 2°53.091 -999 -999 -999  
2001-07-30 07:48:53 51°16.976 2°52.908 -999 -999 -999  
2001-07-30 07:49:53 51°17.17 2°52.727 -999 -999 -999  
2001-07-30 07:50:53 51°17.337 2°52.5 -999 -999 -999  
2001-07-30 07:51:53 51°17.497 2°52.26 -999 -999 -999  
2001-07-30 07:52:53 51°17.648 2°52.006 -999 -999 -999  
2001-07-30 07:53:53 51°17.757 2°51.718 -999 -999 -999  
2001-07-30 07:54:53 51°17.824 2°51.404 -999 -999 -999  
2001-07-30 07:55:53 51°17.894 2°51.089 -999 -999 -999  
2001-07-30 07:56:53 51°17.969 2°50.775 -999 -999 -999  
2001-07-30 07:57:53 51°18.058 2°50.466 -999 -999 -999  
2001-07-30 07:58:53 51°18.157 2°50.163 -999 -999 -999  
2001-07-30 07:59:53 51°18.243 2°49.85 -999 -999 -999  
2001-07-30 08:00:53 51°18.333 2°49.544 -999 -999 -999  
2001-07-30 08:01:53 51°18.424 2°49.241 -999 -999 -999  
2001-07-30 08:02:53 51°18.495 2°48.928 -999 -999 -999  
2001-07-30 08:03:53 51°18.601 2°48.637 -999 -999 -999  
2001-07-30 08:04:53 51°18.668 2°48.321 -999 -999 -999  
2001-07-30 08:05:53 51°18.748 2°48.012 -999 -999 -999  
2001-07-30 08:06:53 51°18.839 2°47.705 -999 -999 -999  
2001-07-30 08:07:53 51°18.936 2°47.4 -999 -999 -999  
2001-07-30 08:08:53 51°19.015 2°47.085 -999 -999 -999  
2001-07-30 08:09:53 51°19.088 2°46.768 -999 -999 -999  
2001-07-30 08:10:53 51°19.158 2°46.446 -999 -999 -999  
2001-07-30 08:11:53 51°19.201 2°46.118 -999 -999 -999  
2001-07-30 08:12:53 51°19.285 2°45.813 -999 -999 -999  
2001-07-30 08:13:53 51°19.379 2°45.516 -999 -999 -999  
2001-07-30 08:14:53 51°19.496 2°45.243 -999 -999 -999  
2001-07-30 08:17:13 51°19.748 2°44.563 -999 -999 -999  
2001-07-30 08:18:13 51°19.822 2°44.245 -999 -999 -999  
2001-07-30 08:19:13 51°19.91 2°43.937 -999 -999 -999  
2001-07-30 08:20:13 51°19.986 2°43.62 -999 -999 -999  
2001-07-30 08:21:13 51°20.061 2°43.297 -999 -999 -999  
2001-07-30 08:22:13 51°20.137 2°42.974 -999 -999 -999  
2001-07-30 08:23:13 51°20.223 2°42.661 -999 -999 -999  
2001-07-30 08:24:13 51°20.301 2°42.352 -999 -999 -999  
2001-07-30 08:25:13 51°20.377 2°42.046 -999 -999 -999  
2001-07-30 08:26:13 51°20.457 2°41.741 -999 -999 -999  
2001-07-30 08:27:13 51°20.524 2°41.43 -999 -999 -999  
2001-07-30 08:28:13 51°20.605 2°41.121 -999 -999 -999  
2001-07-30 08:29:13 51°20.703 2°40.818 -999 -999 -999  
2001-07-30 08:30:13 51°20.796 2°40.507 -999 -999 -999  
2001-07-30 08:31:13 51°20.875 2°40.186 -999 -999 -999  
2001-07-30 08:32:13 51°20.948 2°39.862 -999 -999 -999  
2001-07-30 08:33:13 51°21.034 2°39.548 -999 -999 -999  
2001-07-30 08:34:13 51°21.146 2°39.255 -999 -999 -999  
2001-07-30 08:35:13 51°21.268 2°38.979 -999 -999 -999  
2001-07-30 08:36:13 51°21.483 2°38.865 -999 -999 -999  
2001-07-30 08:37:13 51°21.71 2°38.787 -999 -999 -999  
2001-07-30 08:38:13 51°21.936 2°38.712 -999 -999 -999  
2001-07-30 08:39:13 51°22.167 2°38.696 -999 -999 -999  
2001-07-30 08:40:13 51°22.392 2°38.837 -999 -999 -999  
2001-07-30 08:41:13 51°22.612 2°39.012 -999 -999 -999  
2001-07-30 08:42:13 51°22.831 2°39.192 -999 -999 -999  
2001-07-30 08:43:13 51°23.052 2°39.366 -999 -999 -999  
2001-07-30 08:44:13 51°23.278 2°39.517 -999 -999 -999  
2001-07-30 08:45:13 51°23.508 2°39.658 -999 -999 -999  
2001-07-30 08:46:13 51°23.739 2°39.779 -999 -999 -999  
2001-07-30 08:47:13 51°23.973 2°39.895 -999 -999 -999  
2001-07-30 08:48:13 51°24.209 2°39.991 -999 -999 -999  
2001-07-30 08:49:13 51°24.435 2°40.132 -999 -999 -999  
2001-07-30 08:50:13 51°24.64 2°40.344 -999 -999 -999  
2001-07-30 08:51:13 51°24.841 2°40.567 -999 -999 -999  
2001-07-30 08:52:13 51°25.056 2°40.753 -999 -999 -999  
2001-07-30 08:53:13 51°25.276 2°40.918 -999 -999 -999  
2001-07-30 08:54:13 51°25.497 2°41.075 -999 -999 -999  
2001-07-30 08:55:13 51°25.717 2°41.241 -999 -999 -999  
2001-07-30 08:56:13 51°25.934 2°41.416 -999 -999 -999  
2001-07-30 08:57:13 51°26.148 2°41.606 -999 -999 -999  
2001-07-30 08:58:13 51°26.367 2°41.787 -999 -999 -999  
2001-07-30 08:59:13 51°26.576 2°41.99 -999 -999 -999  
2001-07-30 09:00:13 51°26.772 2°42.23 -999 -999 -999  
2001-07-30 09:01:13 51°26.945 2°42.512 -999 -999 -999  
2001-07-30 09:02:13 51°27.072 2°42.847 -999 -999 -999  
2001-07-30 09:03:13 51°27.186 2°43.198 -999 -999 -999  
2001-07-30 09:04:13 51°27.313 2°43.54 -999 -999 -999  
2001-07-30 09:05:13 51°27.414 2°43.9 -999 -999 -999  
2001-07-30 09:06:13 51°27.465 2°44.286 -999 -999 -999  
2001-07-30 09:07:13 51°27.404 2°44.648 -999 -999 -999  
2001-07-30 09:08:13 51°27.242 2°44.896 -999 -999 -999  
2001-07-30 09:09:13 51°27.049 2°45.078 -999 -999 -999  
2001-07-30 09:10:13 51°26.854 2°45.248 -999 -999 -999  
2001-07-30 09:11:13 51°26.663 2°45.431 -999 -999 -999  
2001-07-30 09:12:13 51°26.51 2°45.699 -999 -999 -999  
2001-07-30 09:13:13 51°26.326 2°45.895 -999 -999 -999  
2001-07-30 09:14:13 51°26.124 2°46.024 -999 -999 -999  
2001-07-30 09:15:13 51°25.923 2°46.161 -999 -999 -999  
2001-07-30 09:16:13 51°25.718 2°46.271 -999 -999 -999  
2001-07-30 09:17:13 51°25.51 2°46.353 -999 -999 -999  
2001-07-30 09:18:13 51°25.3 2°46.417 -999 -999 -999  
2001-07-30 09:19:13 51°25.093 2°46.512 -999 -999 -999  
2001-07-30 09:20:13 51°24.915 2°46.719 -999 -999 -999  
2001-07-30 09:21:13 51°24.833 2°47.066 -999 -999 -999  
2001-07-30 09:22:13 51°24.88 2°47.449 -999 -999 -999  
2001-07-30 09:23:13 51°24.98 2°47.813 -999 -999 -999  
2001-07-30 09:24:13 51°25.102 2°48.166 -999 -999 -999  
2001-07-30 09:25:13 51°25.233 2°48.508 -999 -999 -999  
2001-07-30 09:26:13 51°25.359 2°48.856 -999 -999 -999  
2001-07-30 09:27:13 51°25.497 2°49.196 -999 -999 -999  
2001-07-30 09:28:13 51°25.635 2°49.535 -999 -999 -999  
2001-07-30 09:29:13 51°25.786 2°49.858 -999 -999 -999  
2001-07-30 09:30:13 51°25.992 2°50.081 -999 -999 -999  
2001-07-30 09:31:13 51°26.23 2°50.15 -999 -999 -999  
2001-07-30 09:32:13 51°26.459 2°50.071 -999 -999 -999  
2001-07-30 09:33:13 51°26.68 2°49.945 -999 -999 -999  
2001-07-30 09:34:13 51°26.892 2°49.795 -999 -999 -999  
2001-07-30 09:35:13 51°27.108 2°49.658 -999 -999 -999  
2001-07-30 09:36:13 51°27.312 2°49.492 -999 -999 -999  
2001-07-30 09:37:13 51°27.512 2°49.315 -999 -999 -999  
2001-07-30 09:38:13 51°27.724 2°49.169 -999 -999 -999  
2001-07-30 09:39:13 51°27.943 2°49.042 -999 -999 -999  
2001-07-30 09:40:13 51°28.155 2°48.891 -999 -999 -999  
2001-07-30 09:41:13 51°28.37 2°48.751 -999 -999 -999  
2001-07-30 09:42:13 51°28.589 2°48.708 -999 -999 -999  
2001-07-30 09:43:13 51°28.687 2°49.04 -999 -999 -999  
2001-07-30 09:44:13 51°28.794 2°49.398 -999 -999 -999  
2001-07-30 09:45:13 51°28.903 2°49.76 -999 -999 -999  
2001-07-30 09:46:13 51°29.008 2°50.123 -999 -999 -999  
2001-07-30 09:47:13 51°29.108 2°50.489 -999 -999 -999  
2001-07-30 09:48:13 51°29.215 2°50.855 -999 -999 -999  
2001-07-30 09:49:13 51°29.314 2°51.222 -999 -999 -999  
2001-07-30 09:50:13 51°29.431 2°51.575 -999 -999 -999  
2001-07-30 09:51:13 51°29.524 2°51.943 -999 -999 -999  
2001-07-30 09:52:13 51°29.59 2°52.318 -999 -999 -999  
2001-07-30 09:53:13 51°29.452 2°52.545 -999 -999 -999  
2001-07-30 09:54:13 51°29.259 2°52.696 -999 -999 -999  
2001-07-30 09:55:13 51°29.067 2°52.855 -999 -999 -999  
2001-07-30 09:56:13 51°28.872 2°53.019 -999 -999 -999  
2001-07-30 09:57:13 51°28.679 2°53.176 -999 -999 -999  
2001-07-30 09:58:13 51°28.48 2°53.326 -999 -999 -999  
2001-07-30 09:59:13 51°28.289 2°53.494 -999 -999 -999  
2001-07-30 10:00:13 51°28.095 2°53.645 -999 -999 -999  
2001-07-30 10:01:13 51°27.904 2°53.805 -999 -999 -999  
2001-07-30 10:02:13 51°27.713 2°53.97 -999 -999 -999  
2001-07-30 10:03:13 51°27.522 2°54.134 -999 -999 -999  
2001-07-30 10:04:13 51°27.381 2°54.394 -999 -999 -999  
2001-07-30 10:05:13 51°27.473 2°54.731 -999 -999 -999  
2001-07-30 10:06:13 51°27.672 2°54.975 -999 -999 -999  
2001-07-30 10:07:13 51°27.865 2°55.237 -999 -999 -999  
2001-07-30 10:08:13 51°28.057 2°55.501 -999 -999 -999  
2001-07-30 10:09:13 51°28.255 2°55.757 -999 -999 -999  
2001-07-30 10:10:13 51°28.447 2°56.017 -999 -999 -999  
2001-07-30 10:11:13 51°28.634 2°56.274 -999 -999 -999  
2001-07-30 10:12:13 51°28.823 2°56.529 -999 -999 -999  
2001-07-30 10:13:13 51°29.017 2°56.787 -999 -999 -999  
2001-07-30 10:14:13 51°29.208 2°57.049 -999 -999 -999  
2001-07-30 10:15:13 51°29.403 2°57.31 -999 -999 -999  
2001-07-30 10:16:13 51°29.595 2°57.572 -999 -999 -999  
2001-07-30 10:17:13 51°29.792 2°57.818 -999 -999 -999  
2001-07-30 10:18:13 51°29.987 2°58.074 -999 -999 -999  
2001-07-30 10:19:13 51°30.179 2°58.339 -999 -999 -999  
2001-07-30 10:20:13 51°30.37 2°58.602 -999 -999 -999  
2001-07-30 10:21:13 51°30.563 2°58.863 -999 -999 -999  
2001-07-30 10:22:13 51°30.758 2°59.121 -999 -999 -999  
2001-07-30 10:23:13 51°30.951 2°59.384 -999 -999 -999  
2001-07-30 10:24:13 51°31.093 2°59.703 -999 -999 -999  
2001-07-30 10:25:13 51°31.083 3°0.07 -999 -999 -999  
2001-07-30 10:26:13 51°30.929 3°0.306 -999 -999 -999  
2001-07-30 10:27:13 51°30.738 3°0.451 -999 -999 -999  
2001-07-30 10:28:13 51°30.555 3°0.635 -999 -999 -999  
2001-07-30 10:29:13 51°30.383 3°0.852 -999 -999 -999  
2001-07-30 10:30:13 51°30.22 3°1.092 -999 -999 -999  
2001-07-30 10:31:13 51°30.063 3°1.349 -999 -999 -999  
2001-07-30 10:32:13 51°29.897 3°1.59 -999 -999 -999  
2001-07-30 10:33:13 51°29.713 3°1.78 -999 -999 -999  
2001-07-30 10:34:13 51°29.523 3°1.943 -999 -999 -999  
2001-07-30 10:35:13 51°29.327 3°2.079 -999 -999 -999  
2001-07-30 10:36:13 51°29.128 3°2.206 -999 -999 -999  
2001-07-30 10:37:13 51°28.93 3°2.335 -999 -999 -999  
2001-07-30 10:38:13 51°28.732 3°2.466 -999 -999 -999  
2001-07-30 10:39:13 51°28.534 3°2.59 -999 -999 -999  
2001-07-30 10:40:13 51°28.334 3°2.692 -999 -999 -999  
2001-07-30 10:41:13 51°28.137 3°2.803 -999 -999 -999  
2001-07-30 10:42:13 51°27.936 3°2.907 -999 -999 -999  
2001-07-30 10:43:13 51°27.732 3°3.008 -999 -999 -999  
2001-07-30 10:44:13 51°27.533 3°3.135 -999 -999 -999  
2001-07-30 10:45:13 51°27.332 3°3.239 -999 -999 -999  
2001-07-30 10:46:13 51°27.13 3°3.347 -999 -999 -999  
2001-07-30 10:47:13 51°26.929 3°3.454 -999 -999 -999  
2001-07-30 10:48:13 51°26.744 3°3.615 -999 -999 -999  
2001-07-30 10:49:13 51°26.585 3°3.846 -999 -999 -999  
2001-07-30 10:50:13 51°26.466 3°4.144 -999 -999 -999  
2001-07-30 10:51:13 51°26.355 3°4.453 -999 -999 -999  
2001-07-30 10:52:13 51°26.235 3°4.751 -999 -999 -999  
2001-07-30 10:53:13 51°26.135 3°5.069 -999 -999 -999  
2001-07-30 10:54:13 51°26.024 3°5.377 -999 -999 -999  
2001-07-30 10:55:13 51°25.914 3°5.685 -999 -999 -999  
2001-07-30 10:56:13 51°25.818 3°6.005 -999 -999 -999  
2001-07-30 10:57:13 51°25.676 3°6.262 -999 -999 -999  
2001-07-30 10:58:13 51°25.542 3°6.54 -999 -999 -999  
2001-07-30 10:59:13 51°25.413 3°6.828 -999 -999 -999  
2001-07-30 11:00:13 51°25.313 3°7.147 -999 -999 -999  
2001-07-30 11:01:13 51°25.223 3°7.471 -999 -999 -999  
2001-07-30 11:02:13 51°25.135 3°7.796 -999 -999 -999  
2001-07-30 11:03:13 51°25.06 3°8.128 -999 -999 -999  
2001-07-30 11:04:13 51°24.977 3°8.457 -999 -999 -999  
2001-07-30 11:05:13 51°24.907 3°8.796 -999 -999 -999  
2001-07-30 11:06:13 51°24.838 3°9.136 -999 -999 -999  
2001-07-30 11:07:13 51°24.776 3°9.479 -999 -999 -999  
2001-07-30 11:08:13 51°24.7 3°9.81 -999 -999 -999  
2001-07-30 11:09:13 51°24.672 3°10.165 -999 -999 -999  
2001-07-30 11:10:13 51°24.658 3°10.525 -999 -999 -999  
2001-07-30 11:11:13 51°24.689 3°10.884 -999 -999 -999  
2001-07-30 11:12:13 51°24.717 3°11.243 -999 -999 -999  
2001-07-30 11:13:13 51°24.81 3°11.574 -999 -999 -999  
2001-07-30 11:14:13 51°24.975 3°11.823 -999 -999 -999  
2001-07-30 11:15:13 51°25.175 3°11.811 -999 -999 -999  
2001-07-30 11:16:13 51°25.342 3°11.57 -999 -999 -999  
2001-07-30 11:17:13 51°25.494 3°11.299 -999 -999 -999  
2001-07-30 11:18:13 51°25.619 3°11 -999 -999 -999  
2001-07-30 11:19:13 51°25.749 3°10.705 -999 -999 -999  
2001-07-30 11:20:13 51°25.867 3°10.39 -999 -999 -999  
2001-07-30 11:21:13 51°25.955 3°10.051 -999 -999 -999  
2001-07-30 11:22:13 51°26.06 3°9.724 -999 -999 -999  
2001-07-30 11:23:13 51°26.205 3°9.432 -999 -999 -999  
2001-07-30 11:24:13 51°26.314 3°9.107 -999 -999 -999  
2001-07-30 11:25:13 51°26.434 3°8.793 -999 -999 -999  
2001-07-30 11:26:13 51°26.574 3°8.496 -999 -999 -999  
2001-07-30 11:27:13 51°26.724 3°8.211 -999 -999 -999  
2001-07-30 11:28:13 51°26.863 3°7.911 -999 -999 -999  
2001-07-30 11:29:13 51°26.993 3°7.601 -999 -999 -999  
2001-07-30 11:30:13 51°27.134 3°7.304 -999 -999 -999  
2001-07-30 11:31:13 51°27.266 3°6.996 -999 -999 -999  
2001-07-30 11:32:13 51°27.404 3°6.698 -999 -999 -999  
2001-07-30 11:33:13 51°27.565 3°6.429 -999 -999 -999  
2001-07-30 11:34:13 51°27.781 3°6.385 -999 -999 -999  
2001-07-30 11:35:13 51°27.919 3°6.653 -999 -999 -999  
2001-07-30 11:36:13 51°28.017 3°6.979 -999 -999 -999  
2001-07-30 11:37:13 51°28.118 3°7.307 -999 -999 -999  
2001-07-30 11:38:13 51°28.206 3°7.643 -999 -999 -999  
2001-07-30 11:39:13 51°28.312 3°7.967 -999 -999 -999  
2001-07-30 11:40:13 51°28.411 3°8.295 -999 -999 -999  
2001-07-30 11:41:13 51°28.515 3°8.622 -999 -999 -999  
2001-07-30 11:42:13 51°28.605 3°8.96 -999 -999 -999  
2001-07-30 11:43:13 51°28.594 3°9.311 -999 -999 -999  
2001-07-30 11:44:13 51°28.53 3°9.648 -999 -999 -999  
2001-07-30 11:45:13 51°28.475 3°9.988 -999 -999 -999  
2001-07-30 11:46:13 51°28.422 3°10.328 -999 -999 -999  
2001-07-30 11:47:13 51°28.355 3°10.659 -999 -999 -999  
2001-07-30 11:48:13 51°28.263 3°10.962 -999 -999 -999  
2001-07-30 11:49:13 51°28.133 3°11.223 -999 -999 -999  
2001-07-30 11:50:13 51°27.999 3°11.476 -999 -999 -999  
2001-07-30 11:51:13 51°27.866 3°11.725 -999 -999 -999  
2001-07-30 11:52:13 51°27.731 3°11.972 -999 -999 -999  
2001-07-30 11:53:13 51°27.597 3°12.22 -999 -999 -999  
2001-07-30 11:54:13 51°27.46 3°12.46 -999 -999 -999  
2001-07-30 11:55:13 51°27.314 3°12.689 -999 -999 -999  
2001-07-30 11:56:13 51°27.168 3°12.917 -999 -999 -999  
2001-07-30 11:57:13 51°27.021 3°13.141 -999 -999 -999  
2001-07-30 11:58:13 51°26.868 3°13.356 -999 -999 -999  
2001-07-30 11:59:13 51°26.722 3°13.587 -999 -999 -999  
2001-07-30 12:00:13 51°26.578 3°13.812 -999 -999 -999  
2001-07-30 12:01:13 51°26.445 3°14.053 -999 -999 -999  
2001-07-30 12:02:13 51°26.306 3°14.283 -999 -999 -999  
2001-07-30 12:03:13 51°26.158 3°14.498 -999 -999 -999  
2001-07-30 12:04:13 51°26.011 3°14.715 -999 -999 -999  
2001-07-30 12:05:13 51°25.889 3°14.975 -999 -999 -999  
2001-07-30 12:06:13 51°25.767 3°15.241 -999 -999 -999  
2001-07-30 12:07:13 51°25.645 3°15.508 -999 -999 -999  
2001-07-30 12:08:13 51°25.539 3°15.794 -999 -999 -999  
2001-07-30 12:09:13 51°25.452 3°16.099 -999 -999 -999  
2001-07-30 12:10:13 51°25.356 3°16.395 -999 -999 -999  
2001-07-30 12:11:13 51°25.264 3°16.693 -999 -999 -999  
2001-07-30 12:12:13 51°25.176 3°16.991 -999 -999 -999  
2001-07-30 12:13:13 51°25.089 3°17.288 -999 -999 -999  
2001-07-30 12:14:13 51°24.995 3°17.579 -999 -999 -999  
2001-07-30 12:15:13 51°24.914 3°17.878 -999 -999 -999  
2001-07-30 12:16:13 51°24.818 3°18.168 -999 -999 -999  
2001-07-30 12:17:13 51°24.679 3°18.409 -999 -999 -999  
2001-07-30 12:18:13 51°24.506 3°18.589 -999 -999 -999  
2001-07-30 12:19:13 51°24.303 3°18.69 -999 -999 -999  
2001-07-30 12:20:13 51°24.086 3°18.693 -999 -999 -999  
2001-07-30 12:21:13 51°23.868 3°18.631 -999 -999 -999  
2001-07-30 12:22:13 51°23.655 3°18.513 -999 -999 -999  
2001-07-30 12:23:13 51°23.458 3°18.331 -999 -999 -999  
2001-07-30 12:24:13 51°23.334 3°18.02 -999 -999 -999  
2001-07-30 12:25:13 51°23.296 3°17.642 -999 -999 -999  
2001-07-30 12:26:13 51°23.26 3°17.262 -999 -999 -999  
2001-07-30 12:27:13 51°23.236 3°16.878 -999 -999 -999  
2001-07-30 12:28:13 51°23.212 3°16.491 -999 -999 -999  
2001-07-30 12:29:13 51°23.187 3°16.106 -999 -999 -999  
2001-07-30 12:30:13 51°23.152 3°15.723 -999 -999 -999  
2001-07-30 12:31:13 51°23.127 3°15.336 -999 -999 -999  
2001-07-30 12:32:13 51°23.093 3°14.95 -999 -999 -999  
2001-07-30 12:33:13 51°23.036 3°14.574 -999 -999 -999  
2001-07-30 12:34:13 51°22.966 3°14.21 -999 -999 -999  
2001-07-30 12:35:13 51°22.933 3°13.833 -999 -999 -999  
2001-07-30 12:36:13 51°22.894 3°13.453 -999 -999 -999  
2001-07-30 12:37:13 51°22.879 3°13.069 -999 -999 -999  
2001-07-30 12:38:13 51°22.86 3°12.687 -999 -999 -999  
2001-07-30 12:39:13 51°22.83 3°12.309 -999 -999 -999  
2001-07-30 12:40:13 51°22.795 3°11.936 -999 -999 -999  
2001-07-30 12:41:13 51°22.765 3°11.564 -999 -999 -999  
2001-07-30 12:42:13 51°22.723 3°11.195 -999 -999 -999  
2001-07-30 12:43:13 51°22.674 3°10.827 -999 -999 -999  
2001-07-30 12:44:13 51°22.62 3°10.462 -999 -999 -999  
2001-07-30 12:45:13 51°22.567 3°10.099 -999 -999 -999  
2001-07-30 12:46:13 51°22.497 3°9.744 -999 -999 -999  
2001-07-30 12:47:13 51°22.443 3°9.378 -999 -999 -999  
2001-07-30 12:48:13 51°22.382 3°9.012 -999 -999 -999  
2001-07-30 12:49:13 51°22.324 3°8.645 -999 -999 -999  
2001-07-30 12:50:13 51°22.269 3°8.277 -999 -999 -999  
2001-07-30 12:51:13 51°22.201 3°7.916 -999 -999 -999  
2001-07-30 12:52:13 51°22.146 3°7.55 -999 -999 -999  
2001-07-30 12:53:13 51°22.062 3°7.2 -999 -999 -999  
2001-07-30 12:54:13 51°21.981 3°6.847 -999 -999 -999  
2001-07-30 12:55:13 51°21.909 3°6.488 -999 -999 -999  
2001-07-30 12:56:13 51°21.84 3°6.126 -999 -999 -999  
2001-07-30 12:57:13 51°21.773 3°5.763 -999 -999 -999  
2001-07-30 12:58:13 51°21.711 3°5.402 -999 -999 -999  
2001-07-30 12:59:13 51°21.659 3°5.037 -999 -999 -999  
2001-07-30 13:00:13 51°21.582 3°4.684 -999 -999 -999  
2001-07-30 13:01:13 51°21.494 3°4.338 -999 -999 -999  
2001-07-30 13:02:13 51°21.412 3°3.988 -999 -999 -999  
2001-07-30 13:03:13 51°21.325 3°3.64 -999 -999 -999  
2001-07-30 13:04:13 51°21.24 3°3.292 -999 -999 -999  
2001-07-30 13:05:13 51°21.158 3°2.942 -999 -999 -999  
2001-07-30 13:06:13 51°21.071 3°2.595 -999 -999 -999  
2001-07-30 13:07:13 51°20.985 3°2.248 -999 -999 -999  
2001-07-30 13:08:13 51°20.899 3°1.901 -999 -999 -999  
2001-07-30 13:09:13 51°20.814 3°1.552 -999 -999 -999  
2001-07-30 13:10:13 51°20.729 3°1.203 -999 -999 -999  
2001-07-30 13:11:13 51°20.647 3°0.851 -999 -999 -999  
2001-07-30 13:12:13 51°20.559 3°0.5 -999 -999 -999  
2001-07-30 13:13:13 51°20.48 3°0.147 -999 -999 -999  
2001-07-30 13:14:13 51°20.397 2°59.795 -999 -999 -999  
2001-07-30 13:15:13 51°20.308 2°59.445 -999 -999 -999  
2001-07-30 13:16:13 51°20.222 2°59.093 -999 -999 -999  
2001-07-30 13:17:13 51°20.131 2°58.743 -999 -999 -999  
2001-07-30 13:18:13 51°20.047 2°58.389 -999 -999 -999  
2001-07-30 13:19:13 51°19.963 2°58.037 -999 -999 -999  
2001-07-30 13:20:13 51°19.875 2°57.682 -999 -999 -999  
2001-07-30 13:21:13 51°19.785 2°57.328 -999 -999 -999  
2001-07-30 13:22:13 51°19.696 2°56.976 -999 -999 -999  
2001-07-30 13:23:13 51°19.606 2°56.625 -999 -999 -999  
2001-07-30 13:24:13 51°19.523 2°56.272 -999 -999 -999  
2001-07-30 13:25:13 51°19.43 2°55.922 -999 -999 -999  
2001-07-30 13:26:13 51°19.346 2°55.569 -999 -999 -999  
2001-07-30 13:27:13 51°19.261 2°55.218 -999 -999 -999  
2001-07-30 13:28:13 51°19.187 2°54.861 -999 -999 -999  
2001-07-30 13:29:13 51°19.101 2°54.51 -999 -999 -999  
2001-07-30 13:30:13 51°18.994 2°54.178 -999 -999 -999  
2001-07-30 13:31:13 51°18.846 2°53.884 -999 -999 -999  
2001-07-30 13:32:13 51°18.694 2°53.596 -999 -999 -999  
2001-07-30 13:33:13 51°18.548 2°53.301 -999 -999 -999  
2001-07-30 13:34:13 51°18.397 2°53.01 -999 -999 -999  
2001-07-30 13:35:13 51°18.249 2°52.714 -999 -999 -999  
2001-07-30 13:36:13 51°18.067 2°52.479 -999 -999 -999  
2001-07-30 13:37:13 51°17.852 2°52.342 -999 -999 -999  
2001-07-30 13:38:13 51°17.625 2°52.283 -999 -999 -999  
2001-07-30 13:39:13 51°17.398 2°52.311 -999 -999 -999  
2001-07-30 13:40:15 51°17.189 2°52.468 -999 -999 -999  
2001-07-30 13:41:13 51°16.994 2°52.611 -999 -999 -999  
2001-07-30 13:42:13 51°16.791 2°52.757 -999 -999 -999  
2001-07-30 13:43:13 51°16.584 2°52.898 -999 -999 -999  
2001-07-30 13:44:14 51°16.375 2°53.04 -999 -999 -999  
2001-07-30 13:45:13 51°16.173 2°53.177 -999 -999 -999  
2001-07-30 13:46:13 51°15.973 2°53.329 -999 -999 -999  
2001-07-30 13:47:13 51°15.773 2°53.482 -999 -999 -999  
2001-07-30 13:48:15 51°15.58 2°53.679 -999 -999 -999  
2001-07-30 13:49:13 51°15.4 2°53.862 -999 -999 -999  
2001-07-30 13:50:13 51°15.215 2°54.053 -999 -999 -999  
2001-07-30 13:51:13 51°15.033 2°54.248 -999 -999 -999  
2001-07-30 13:52:15 51°14.847 2°54.455 -999 -999 -999  
2001-07-30 13:53:13 51°14.674 2°54.66 -999 -999 -999  
2001-07-30 13:54:13 51°14.499 2°54.874 -999 -999 -999  
2001-07-30 13:55:13 51°14.338 2°55.115 -999 -999 -999  
2001-07-30 13:56:14 51°14.208 2°55.331 -999 -999 -999  
2001-07-30 13:57:13 51°14.113 2°55.405 -999 -999 -999  
2001-07-30 13:58:17 51°14.011 2°55.479 -999 -999 -999  
2001-07-30 13:59:18 51°13.9 2°55.558 -999 -999 -999  
2001-07-30 14:00:18 51°13.809 2°55.638 -999 -999 -999  
2001-07-30 14:01:18 51°13.755 2°55.714 -999 -999 -999  
2001-07-30 14:02:18 51°13.716 2°55.78 -999 -999 -999  
2001-07-30 14:03:18 51°13.695 2°55.851 -999 -999 -999  
2001-07-30 14:04:18 51°13.678 2°55.918 -999 -999 -999  
2001-07-30 14:05:18 51°13.676 2°55.923 -999 -999 -999  
2001-07-30 14:06:18 51°13.676 2°55.924 -999 -999 -999